Time;durP1;ratioP1;P1;durP2;ratioP2;P2;SDS_P1;SDS_P2;PMS_P1;PMS_P2;Temp;Humidity;BMP_temperature;BMP_pressure;BME280_temperature;BME280_humidity;BME280_pressure;Samples;Min_cycle;Max_cycle;Signal;HPM_P1;HPM_P2
2022/09/12 00:00:36;;;;;;;;;;;14.00;99.90;;;;;;5048956;28;19927;-68
2022/09/12 00:03:02;;;;;;;;;;;14.00;99.90;;;;;;5070071;28;20389;-68
2022/09/12 00:05:27;;;;;;;;;;;14.00;99.90;;;;;;5050038;28;19924;-68
2022/09/12 00:07:53;;;;;;;;;;;14.00;99.90;;;;;;5069708;28;20298;-68
2022/09/12 00:10:18;;;;;;;;;;;13.90;99.90;;;;;;5052171;28;20263;-68
2022/09/12 00:12:44;;;;;;;;;;;13.90;99.90;;;;;;5069998;28;19924;-68
2022/09/12 00:15:10;;;;;;;;;;;13.90;99.90;;;;;;5051432;28;20274;-68
2022/09/12 00:17:36;;;;;;;;;;;13.80;99.90;;;;;;5050428;28;19927;-68
2022/09/12 00:20:06;;;;;;;;;;;13.80;99.90;;;;;;5048057;28;20369;-68
2022/09/12 00:22:32;;;;;;;;;;;13.70;99.90;;;;;;5052900;28;19928;-68
2022/09/12 00:24:58;;;;;;;;;;;13.70;99.90;;;;;;5069016;28;20262;-68
2022/09/12 00:27:23;;;;;;;;;;;13.60;99.90;;;;;;5069116;28;19974;-68
2022/09/12 00:29:49;;;;;;;;;;;13.50;99.90;;;;;;5034741;28;19920;-68
2022/09/12 00:32:14;;;;;;;;;;;13.50;99.90;;;;;;5050555;28;19931;-68
2022/09/12 00:34:40;;;;;;;;;;;13.50;99.90;;;;;;5066977;28;19946;-68
2022/09/12 00:37:05;;;;;;;;;;;13.50;99.90;;;;;;5048831;28;20011;-68
2022/09/12 00:39:31;;;;;;;;;;;13.50;99.90;;;;;;5051775;28;20003;-68
2022/09/12 00:41:56;;;;;;;;;;;13.50;99.90;;;;;;5051930;28;19927;-68
2022/09/12 00:44:22;;;;;;;;;;;13.50;99.90;;;;;;5051556;28;20728;-68
2022/09/12 00:47:04;;;;;;;;;;;13.50;99.90;;;;;;5052974;28;20335;-68
2022/09/12 00:49:38;;;;;;;;;;;13.50;99.90;;;;;;5052353;28;20376;-68
2022/09/12 00:52:07;;;;;;;;;;;13.50;99.90;;;;;;5048779;28;19933;-68
2022/09/12 00:54:36;;;;;;;;;;;13.40;99.90;;;;;;5050346;28;19986;-68
2022/09/12 00:57:03;;;;;;;;;;;13.40;99.90;;;;;;5070138;28;19974;-68
2022/09/12 00:59:49;;;;;;;;;;;13.40;99.90;;;;;;5050838;28;19928;-68
2022/09/12 01:02:15;;;;;;;;;;;13.40;99.90;;;;;;5050096;28;20356;-68
2022/09/12 01:04:42;;;;;;;;;;;13.30;99.90;;;;;;5051769;28;19924;-68
2022/09/12 01:07:07;;;;;;;;;;;13.30;99.90;;;;;;5051746;28;19931;-68
2022/09/12 01:09:33;;;;;;;;;;;13.20;99.90;;;;;;5041256;28;19924;-68
2022/09/12 01:12:00;;;;;;;;;;;13.20;99.90;;;;;;5050646;28;19975;-68
2022/09/12 01:14:25;;;;;;;;;;;13.10;99.90;;;;;;5033413;28;19925;-68
2022/09/12 01:16:51;;;;;;;;;;;13.10;99.90;;;;;;5049276;28;19932;-68
2022/09/12 01:19:27;;;;;;;;;;;13.00;99.90;;;;;;5061411;28;20259;-68
2022/09/12 01:21:53;;;;;;;;;;;13.00;99.90;;;;;;5068093;28;19928;-68
2022/09/12 01:24:18;;;;;;;;;;;13.00;99.90;;;;;;5034072;28;19928;-68
2022/09/12 01:26:56;;;;;;;;;;;13.00;99.90;;;;;;5050629;28;19970;-68
2022/09/12 01:29:31;;;;;;;;;;;13.00;99.90;;;;;;5066617;28;19932;-68
2022/09/12 01:32:06;;;;;;;;;;;13.00;99.90;;;;;;5050303;28;19927;-68
2022/09/12 01:34:50;;;;;;;;;;;13.00;99.90;;;;;;5067446;28;19921;-68
2022/09/12 01:37:20;;;;;;;;;;;13.00;99.90;;;;;;5042864;28;19928;-68
2022/09/12 01:40:04;;;;;;;;;;;13.00;99.90;;;;;;5052006;28;19989;-68
2022/09/12 01:42:33;;;;;;;;;;;13.10;99.90;;;;;;5050977;28;20355;-68
2022/09/12 01:44:58;;;;;;;;;;;13.10;99.90;;;;;;5053639;28;20294;-68
2022/09/12 01:47:29;;;;;;;;;;;13.00;99.90;;;;;;5038046;28;19921;-68
2022/09/12 01:50:01;;;;;;;;;;;13.10;99.90;;;;;;5054421;28;20428;-68
2022/09/12 01:52:36;;;;;;;;;;;13.10;99.90;;;;;;5034363;28;19963;-68
2022/09/12 01:55:11;;;;;;;;;;;13.10;99.90;;;;;;5044355;28;19936;-68
2022/09/12 01:57:40;;;;;;;;;;;13.10;99.90;;;;;;5055303;28;19921;-68
2022/09/12 02:00:08;;;;;;;;;;;13.10;99.90;;;;;;5052254;28;19927;-68
2022/09/12 02:02:38;;;;;;;;;;;13.10;99.90;;;;;;5071594;28;19929;-68
2022/09/12 02:05:07;;;;;;;;;;;13.10;99.90;;;;;;5053929;28;19990;-68
2022/09/12 02:07:37;;;;;;;;;;;13.00;99.90;;;;;;5054304;28;19927;-68
2022/09/12 02:10:12;;;;;;;;;;;13.00;99.90;;;;;;5048998;28;20350;-68
2022/09/12 02:12:44;;;;;;;;;;;13.00;99.90;;;;;;5053966;28;20053;-68
2022/09/12 02:15:11;;;;;;;;;;;13.00;99.90;;;;;;5049431;28;19927;-68
2022/09/12 02:17:38;;;;;;;;;;;13.00;99.90;;;;;;5054607;28;20013;-68
2022/09/12 02:20:07;;;;;;;;;;;13.00;99.90;;;;;;5037726;28;19928;-68
2022/09/12 02:22:35;;;;;;;;;;;13.00;99.90;;;;;;5035082;28;19920;-68
2022/09/12 02:25:01;;;;;;;;;;;13.00;99.90;;;;;;5053374;28;19936;-68
2022/09/12 02:27:32;;;;;;;;;;;12.90;99.90;;;;;;5038515;28;19927;-68
2022/09/12 02:29:57;;;;;;;;;;;13.00;99.90;;;;;;5052003;28;19928;-68
2022/09/12 02:32:27;;;;;;;;;;;13.00;99.90;;;;;;5049069;28;20412;-68
2022/09/12 02:34:59;;;;;;;;;;;13.00;99.90;;;;;;5053788;28;19924;-68
2022/09/12 02:37:26;;;;;;;;;;;13.00;99.90;;;;;;5051560;28;20019;-68
2022/09/12 02:39:55;;;;;;;;;;;12.90;99.90;;;;;;5050319;28;19932;-68
2022/09/12 02:42:21;;;;;;;;;;;12.90;99.90;;;;;;5053416;28;19920;-68
2022/09/12 02:44:47;;;;;;;;;;;12.90;99.90;;;;;;5051630;28;19997;-68
2022/09/12 02:47:25;;;;;;;;;;;12.90;99.90;;;;;;5054854;28;19925;-68
2022/09/12 02:49:51;;;;;;;;;;;12.80;99.90;;;;;;5041281;28;20321;-68
2022/09/12 02:52:17;;;;;;;;;;;12.80;99.90;;;;;;5051693;28;19928;-68
2022/09/12 02:54:43;;;;;;;;;;;12.80;99.90;;;;;;5053147;28;20353;-68
2022/09/12 02:57:19;;;;;;;;;;;12.70;99.90;;;;;;5037304;28;19974;-68
2022/09/12 02:59:45;;;;;;;;;;;12.70;99.90;;;;;;5048301;28;19927;-68
2022/09/12 03:02:27;;;;;;;;;;;12.70;99.90;;;;;;5052341;28;19921;-68
2022/09/12 03:05:01;;;;;;;;;;;12.70;99.90;;;;;;5049512;28;19981;-68
2022/09/12 03:07:36;;;;;;;;;;;12.70;99.90;;;;;;5051958;28;19921;-68
2022/09/12 03:10:02;;;;;;;;;;;12.70;99.90;;;;;;5051355;28;20006;-68
2022/09/12 03:12:34;;;;;;;;;;;12.70;99.90;;;;;;5069927;28;20059;-68
2022/09/12 03:15:09;;;;;;;;;;;12.60;99.90;;;;;;5067194;28;19931;-68
2022/09/12 03:17:50;;;;;;;;;;;12.60;99.90;;;;;;5050404;28;19928;-68
2022/09/12 03:20:18;;;;;;;;;;;12.70;99.90;;;;;;5068729;28;19921;-68
2022/09/12 03:22:52;;;;;;;;;;;12.60;99.90;;;;;;5064988;28;19924;-68
2022/09/12 03:25:21;;;;;;;;;;;12.70;99.90;;;;;;5050149;28;19924;-68
2022/09/12 03:27:47;;;;;;;;;;;12.60;99.90;;;;;;5069295;28;20373;-68
2022/09/12 03:30:12;;;;;;;;;;;12.60;99.90;;;;;;5052865;28;19931;-68
2022/09/12 03:32:39;;;;;;;;;;;12.60;99.90;;;;;;5070389;28;20017;-68
2022/09/12 03:35:05;;;;;;;;;;;12.60;99.90;;;;;;5051902;28;19931;-68
2022/09/12 03:37:30;;;;;;;;;;;12.50;99.90;;;;;;5035464;28;19960;-68
2022/09/12 03:39:55;;;;;;;;;;;12.60;99.90;;;;;;5048549;28;19978;-68
2022/09/12 03:42:21;;;;;;;;;;;12.60;99.90;;;;;;5052590;28;19924;-68
2022/09/12 03:44:46;;;;;;;;;;;12.60;99.90;;;;;;5035405;28;20014;-68
2022/09/12 03:47:12;;;;;;;;;;;12.60;99.90;;;;;;5051484;28;19927;-68
2022/09/12 03:49:37;;;;;;;;;;;12.60;99.90;;;;;;5069935;28;20370;-68
2022/09/12 03:52:03;;;;;;;;;;;12.60;99.90;;;;;;5053492;28;19924;-68
2022/09/12 03:54:28;;;;;;;;;;;12.50;99.90;;;;;;5051718;28;20378;-68
2022/09/12 03:56:54;;;;;;;;;;;12.50;99.90;;;;;;5052521;28;19931;-68
2022/09/12 03:59:19;;;;;;;;;;;12.50;99.90;;;;;;5052506;28;20352;-68
2022/09/12 04:01:45;;;;;;;;;;;12.50;99.90;;;;;;5037683;28;19928;-68
2022/09/12 04:04:10;;;;;;;;;;;12.50;99.90;;;;;;5050439;28;19935;-68
2022/09/12 04:06:36;;;;;;;;;;;12.40;99.90;;;;;;5052466;28;20255;-68
2022/09/12 04:09:01;;;;;;;;;;;12.40;99.90;;;;;;5070039;28;19924;-68
2022/09/12 04:11:26;;;;;;;;;;;12.40;99.90;;;;;;5031875;28;19973;-68
2022/09/12 04:13:52;;;;;;;;;;;12.40;99.90;;;;;;5045478;28;19920;-68
2022/09/12 04:16:18;;;;;;;;;;;12.40;99.90;;;;;;5051836;28;19925;-68
2022/09/12 04:18:44;;;;;;;;;;;12.40;99.90;;;;;;5068304;28;19924;-68
2022/09/12 04:21:12;;;;;;;;;;;12.40;99.90;;;;;;5051468;28;19925;-68
2022/09/12 04:23:37;;;;;;;;;;;12.40;99.90;;;;;;5050770;28;19956;-68
2022/09/12 04:26:05;;;;;;;;;;;12.40;99.90;;;;;;5051348;28;20444;-68
2022/09/12 04:28:31;;;;;;;;;;;12.40;99.90;;;;;;5049384;28;19920;-68
2022/09/12 04:31:01;;;;;;;;;;;12.30;99.90;;;;;;5046414;28;19924;-68
2022/09/12 04:33:26;;;;;;;;;;;12.30;99.90;;;;;;5051835;28;19920;-68
2022/09/12 04:35:51;;;;;;;;;;;12.30;99.90;;;;;;5049971;28;19970;-68
2022/09/12 04:38:17;;;;;;;;;;;12.40;99.90;;;;;;5068975;28;19967;-68
2022/09/12 04:40:42;;;;;;;;;;;12.30;99.90;;;;;;5065980;28;20445;-68
2022/09/12 04:43:08;;;;;;;;;;;12.40;99.90;;;;;;5033619;28;19963;-68
2022/09/12 04:45:33;;;;;;;;;;;12.40;99.90;;;;;;5049188;28;19933;-68
2022/09/12 04:47:59;;;;;;;;;;;12.40;99.90;;;;;;5070253;28;20401;-68
2022/09/12 04:50:25;;;;;;;;;;;12.40;99.90;;;;;;5034968;28;19966;-68
2022/09/12 04:52:51;;;;;;;;;;;12.40;99.90;;;;;;5050122;28;19921;-68
2022/09/12 04:55:16;;;;;;;;;;;12.40;99.90;;;;;;5049603;28;19978;-68
2022/09/12 04:57:42;;;;;;;;;;;12.50;99.90;;;;;;5052388;28;20325;-68
2022/09/12 05:00:08;;;;;;;;;;;12.50;99.90;;;;;;5048333;28;19924;-68
2022/09/12 05:02:33;;;;;;;;;;;12.50;99.90;;;;;;5037265;28;20585;-68
2022/09/12 05:04:59;;;;;;;;;;;12.60;99.90;;;;;;5067811;28;19928;-68
2022/09/12 05:07:24;;;;;;;;;;;12.60;99.90;;;;;;5050746;28;19943;-68
2022/09/12 05:09:50;;;;;;;;;;;12.70;99.90;;;;;;5069572;28;19924;-68
2022/09/12 05:12:15;;;;;;;;;;;12.70;99.90;;;;;;5067366;28;20339;-68
2022/09/12 05:14:41;;;;;;;;;;;12.80;99.90;;;;;;5049745;28;19931;-68
2022/09/12 05:17:06;;;;;;;;;;;12.90;99.90;;;;;;5033097;28;20362;-68
2022/09/12 05:19:32;;;;;;;;;;;13.00;99.90;;;;;;5034580;28;19932;-68
2022/09/12 05:21:58;;;;;;;;;;;13.10;99.90;;;;;;5054276;28;20274;-68
2022/09/12 05:24:23;;;;;;;;;;;13.20;99.90;;;;;;5051485;28;20331;-68
2022/09/12 05:26:49;;;;;;;;;;;13.20;99.90;;;;;;5054324;28;19920;-68
2022/09/12 05:29:14;;;;;;;;;;;13.30;99.90;;;;;;5053107;28;19925;-68
2022/09/12 05:31:40;;;;;;;;;;;13.40;99.90;;;;;;5070504;28;19924;-68
2022/09/12 05:34:08;;;;;;;;;;;13.50;99.90;;;;;;5070715;28;19931;-68
2022/09/12 05:36:35;;;;;;;;;;;13.60;99.90;;;;;;5072676;28;19928;-68
2022/09/12 05:39:01;;;;;;;;;;;13.70;99.90;;;;;;5054911;28;19927;-68
2022/09/12 05:41:31;;;;;;;;;;;13.70;99.90;;;;;;5050191;28;19928;-68
2022/09/12 05:43:58;;;;;;;;;;;13.80;99.90;;;;;;5055513;28;19924;-68
2022/09/12 05:46:25;;;;;;;;;;;13.90;99.90;;;;;;5055085;28;19930;-68
2022/09/12 05:48:51;;;;;;;;;;;13.90;99.90;;;;;;5068141;28;19921;-68
2022/09/12 05:51:19;;;;;;;;;;;14.00;99.90;;;;;;5051444;28;19924;-68
2022/09/12 05:53:45;;;;;;;;;;;14.10;99.90;;;;;;5071727;28;19967;-68
2022/09/12 05:56:12;;;;;;;;;;;14.20;99.90;;;;;;5073180;28;20007;-68
2022/09/12 05:58:39;;;;;;;;;;;14.20;99.90;;;;;;5074657;28;19927;-68
2022/09/12 06:01:06;;;;;;;;;;;14.30;99.90;;;;;;5050056;28;19936;-68
2022/09/12 06:03:32;;;;;;;;;;;14.30;99.90;;;;;;5038917;28;20023;-68
2022/09/12 06:06:00;;;;;;;;;;;14.30;99.90;;;;;;5053899;28;19928;-68
2022/09/12 06:08:26;;;;;;;;;;;14.40;99.90;;;;;;5055650;28;19924;-68
2022/09/12 06:10:56;;;;;;;;;;;14.40;99.90;;;;;;5050801;28;19920;-68
2022/09/12 06:13:22;;;;;;;;;;;14.40;99.90;;;;;;5033610;28;19925;-68
2022/09/12 06:15:48;;;;;;;;;;;14.50;99.90;;;;;;5055850;28;19921;-68
2022/09/12 06:18:13;;;;;;;;;;;14.50;99.90;;;;;;5072450;28;20016;-68
2022/09/12 06:20:38;;;;;;;;;;;14.50;99.90;;;;;;5060483;28;20286;-68
2022/09/12 06:23:04;;;;;;;;;;;14.60;99.90;;;;;;5053997;28;19929;-68
2022/09/12 06:25:29;;;;;;;;;;;14.70;99.90;;;;;;5061553;28;19986;-68
2022/09/12 06:27:55;;;;;;;;;;;14.70;99.90;;;;;;5035601;28;19924;-68
2022/09/12 06:30:21;;;;;;;;;;;14.80;99.90;;;;;;5072037;28;20390;-68
2022/09/12 06:32:46;;;;;;;;;;;14.90;99.90;;;;;;5054704;28;19959;-68
2022/09/12 06:35:12;;;;;;;;;;;15.00;99.90;;;;;;5055866;28;19982;-68
2022/09/12 06:37:38;;;;;;;;;;;15.10;99.90;;;;;;5049000;28;20270;-68
2022/09/12 06:40:03;;;;;;;;;;;15.10;99.90;;;;;;5073545;28;19974;-68
2022/09/12 06:42:29;;;;;;;;;;;15.20;99.90;;;;;;5053019;28;19963;-68
2022/09/12 06:44:54;;;;;;;;;;;15.20;99.90;;;;;;5055103;28;19928;-68
2022/09/12 06:47:20;;;;;;;;;;;15.30;99.90;;;;;;5055258;28;19924;-68
2022/09/12 06:49:45;;;;;;;;;;;15.40;99.90;;;;;;5054590;28;19964;-68
2022/09/12 06:52:10;;;;;;;;;;;15.40;99.90;;;;;;5051249;28;19921;-68
2022/09/12 06:54:36;;;;;;;;;;;15.50;99.90;;;;;;5054076;28;20011;-68
2022/09/12 06:57:02;;;;;;;;;;;15.50;99.90;;;;;;5056234;28;19929;-70
2022/09/12 06:59:27;;;;;;;;;;;15.50;99.90;;;;;;5042549;28;19921;-69
2022/09/12 07:01:53;;;;;;;;;;;15.50;99.90;;;;;;5053933;28;19966;-69
2022/09/12 07:04:19;;;;;;;;;;;15.60;99.90;;;;;;5055125;28;19928;-70
2022/09/12 07:06:44;;;;;;;;;;;15.60;99.90;;;;;;5055208;28;19924;-69
2022/09/12 07:09:12;;;;;;;;;;;15.60;99.90;;;;;;5058416;22;19924;-69
2022/09/12 07:11:38;;;;;;;;;;;15.60;99.90;;;;;;5073449;28;19925;-69
2022/09/12 07:14:05;;;;;;;;;;;15.70;99.90;;;;;;5074615;28;19920;-69
2022/09/12 07:16:30;;;;;;;;;;;15.70;99.90;;;;;;5052657;28;20702;-69
2022/09/12 07:19:00;;;;;;;;;;;15.70;99.90;;;;;;5054447;28;19999;-69
2022/09/12 07:21:26;;;;;;;;;;;15.70;99.90;;;;;;5054530;28;20017;-69
2022/09/12 07:23:54;;;;;;;;;;;15.70;99.90;;;;;;5065108;28;20274;-69
2022/09/12 07:26:19;;;;;;;;;;;15.80;99.90;;;;;;5032309;28;19920;-69
2022/09/12 07:28:49;;;;;;;;;;;15.80;99.90;;;;;;5052162;28;19928;-69
2022/09/12 07:31:15;;;;;;;;;;;15.90;99.90;;;;;;5072236;28;20594;-69
2022/09/12 07:33:41;;;;;;;;;;;15.90;99.90;;;;;;5071304;28;19986;-69
2022/09/12 07:36:10;;;;;;;;;;;16.00;99.90;;;;;;5067721;28;20393;-69
2022/09/12 07:38:36;;;;;;;;;;;16.10;99.90;;;;;;5028540;28;19928;-69
2022/09/12 07:41:08;;;;;;;;;;;16.30;99.90;;;;;;5049105;28;19921;-69
2022/09/12 07:43:34;;;;;;;;;;;16.40;99.90;;;;;;5049865;28;19920;-69
2022/09/12 07:45:59;;;;;;;;;;;16.50;99.90;;;;;;5062260;28;20058;-69
2022/09/12 07:48:25;;;;;;;;;;;16.70;99.90;;;;;;5049354;28;19972;-69
2022/09/12 07:50:58;;;;;;;;;;;16.80;99.90;;;;;;5045360;28;19921;-69
2022/09/12 07:53:24;;;;;;;;;;;17.00;99.90;;;;;;5052506;28;20394;-69
2022/09/12 07:55:56;;;;;;;;;;;17.20;99.90;;;;;;5049943;28;19964;-69
2022/09/12 07:58:22;;;;;;;;;;;17.30;99.90;;;;;;5073709;28;19920;-69
2022/09/12 08:00:47;;;;;;;;;;;17.40;99.90;;;;;;5050961;28;19928;-69
2022/09/12 08:03:13;;;;;;;;;;;17.40;99.90;;;;;;5069407;28;19960;-69
2022/09/12 08:05:38;;;;;;;;;;;17.40;99.90;;;;;;5050860;28;19928;-69
2022/09/12 08:08:04;;;;;;;;;;;17.50;99.90;;;;;;5063044;28;19924;-69
2022/09/12 08:10:30;;;;;;;;;;;17.50;99.90;;;;;;5048235;28;20308;-69
2022/09/12 08:12:56;;;;;;;;;;;17.60;99.90;;;;;;5046324;28;19921;-69
2022/09/12 08:15:21;;;;;;;;;;;17.60;99.90;;;;;;5052661;28;20015;-69
2022/09/12 08:17:47;;;;;;;;;;;17.60;99.90;;;;;;5051537;28;20019;-69
2022/09/12 08:20:12;;;;;;;;;;;17.60;99.90;;;;;;5052094;28;20507;-69
2022/09/12 08:22:39;;;;;;;;;;;17.70;99.90;;;;;;5070541;28;19935;-69
2022/09/12 08:25:05;;;;;;;;;;;17.80;99.90;;;;;;5051635;28;20036;-69
2022/09/12 08:27:31;;;;;;;;;;;17.90;99.90;;;;;;5031170;28;19921;-69
2022/09/12 08:29:56;;;;;;;;;;;17.90;99.90;;;;;;5048856;28;19954;-69
2022/09/12 08:32:22;;;;;;;;;;;18.00;99.90;;;;;;5070270;28;19970;-69
2022/09/12 08:34:47;;;;;;;;;;;18.20;99.90;;;;;;5050943;28;20376;-69
2022/09/12 08:37:13;;;;;;;;;;;18.20;99.90;;;;;;5048977;28;19965;-69
2022/09/12 08:39:38;;;;;;;;;;;18.30;99.90;;;;;;5049734;28;20449;-69
2022/09/12 08:42:04;;;;;;;;;;;18.40;99.90;;;;;;5032671;28;19926;-70
2022/09/12 08:44:52;;;;;;;;;;;18.40;99.90;;;;;;5049565;28;19931;-70
2022/09/12 08:47:24;;;;;;;;;;;18.50;99.90;;;;;;5031469;28;19931;-69
2022/09/12 08:50:05;;;;;;;;;;;18.50;99.90;;;;;;5034284;28;19928;-69
2022/09/12 08:52:49;;;;;;;;;;;18.60;99.90;;;;;;5042594;28;19925;-69
2022/09/12 08:55:17;;;;;;;;;;;18.70;99.90;;;;;;5054690;28;19942;-69
2022/09/12 08:57:43;;;;;;;;;;;18.80;99.90;;;;;;5052680;28;19983;-69
2022/09/12 09:00:11;;;;;;;;;;;18.90;99.90;;;;;;5054181;28;20315;-69
2022/09/12 09:02:37;;;;;;;;;;;18.90;99.90;;;;;;5056307;28;19928;-69
2022/09/12 09:05:11;;;;;;;;;;;18.90;99.90;;;;;;5054734;28;19932;-69
2022/09/12 09:07:53;;;;;;;;;;;18.90;99.90;;;;;;5065461;28;20418;-69
2022/09/12 09:10:27;;;;;;;;;;;19.00;99.90;;;;;;5036335;28;19928;-69
2022/09/12 09:12:59;;;;;;;;;;;19.10;99.90;;;;;;5072162;28;20301;-69
2022/09/12 09:15:34;;;;;;;;;;;19.20;99.90;;;;;;5054232;28;20025;-69
2022/09/12 09:18:21;;;;;;;;;;;19.20;99.90;;;;;;5072493;28;20369;-69
2022/09/12 09:20:50;;;;;;;;;;;19.40;99.90;;;;;;5055930;28;19920;-69
2022/09/12 09:23:16;;;;;;;;;;;19.60;99.90;;;;;;5054220;28;19936;-69
2022/09/12 09:25:46;;;;;;;;;;;19.70;99.90;;;;;;5038123;28;19924;-70
2022/09/12 09:28:18;;;;;;;;;;;19.90;99.90;;;;;;5055972;28;19963;-70
2022/09/12 09:30:45;;;;;;;;;;;20.00;99.90;;;;;;5065552;28;19925;-70
2022/09/12 09:33:17;;;;;;;;;;;20.10;99.90;;;;;;5049549;28;19920;-70
2022/09/12 09:35:43;;;;;;;;;;;20.20;99.90;;;;;;5040997;28;20305;-70
2022/09/12 09:38:28;;;;;;;;;;;20.30;99.90;;;;;;5048948;28;20269;-70
2022/09/12 09:40:56;;;;;;;;;;;20.50;99.90;;;;;;5040008;28;19924;-70
2022/09/12 09:43:23;;;;;;;;;;;20.60;99.90;;;;;;5071007;28;19921;-70
2022/09/12 09:45:50;;;;;;;;;;;20.80;99.90;;;;;;5051151;28;19935;-70
2022/09/12 09:48:25;;;;;;;;;;;20.90;99.90;;;;;;5052862;28;19921;-70
2022/09/12 09:50:51;;;;;;;;;;;21.10;99.90;;;;;;5053952;28;19924;-70
2022/09/12 09:53:32;;;;;;;;;;;21.10;99.90;;;;;;5044641;28;19920;-70
2022/09/12 09:55:58;;;;;;;;;;;21.10;99.90;;;;;;5040291;28;19990;-70
2022/09/12 09:58:28;;;;;;;;;;;21.30;99.90;;;;;;5071481;28;19931;-70
2022/09/12 10:00:57;;;;;;;;;;;21.30;99.90;;;;;;5051946;28;19968;-70
2022/09/12 10:03:27;;;;;;;;;;;21.30;99.90;;;;;;5052045;28;19931;-70
2022/09/12 10:05:54;;;;;;;;;;;21.50;99.90;;;;;;5053212;28;19924;-70
2022/09/12 10:08:21;;;;;;;;;;;21.60;99.90;;;;;;5045176;28;20114;-69
2022/09/12 10:10:54;;;;;;;;;;;21.60;99.90;;;;;;5050407;28;20072;-69
2022/09/12 10:13:22;;;;;;;;;;;21.70;99.90;;;;;;5049345;28;20353;-69
2022/09/12 10:15:55;;;;;;;;;;;21.80;99.90;;;;;;5041421;28;19928;-69
2022/09/12 10:18:34;;;;;;;;;;;21.60;99.90;;;;;;5053157;28;19920;-69
2022/09/12 10:21:00;;;;;;;;;;;21.50;99.90;;;;;;5050966;28;20265;-69
2022/09/12 10:23:33;;;;;;;;;;;21.40;99.90;;;;;;5033257;28;20289;-69
2022/09/12 10:26:00;;;;;;;;;;;21.30;99.90;;;;;;5056814;28;19924;-69
2022/09/12 10:28:36;;;;;;;;;;;21.50;99.90;;;;;;5040875;28;20436;-69
2022/09/12 10:31:02;;;;;;;;;;;21.50;99.90;;;;;;5029381;28;20438;-69
2022/09/12 10:33:28;;;;;;;;;;;21.60;99.90;;;;;;5053050;28;19927;-69
2022/09/12 10:35:54;;;;;;;;;;;21.70;99.90;;;;;;5069998;28;19927;-69
2022/09/12 10:38:24;;;;;;;;;;;21.90;99.90;;;;;;5054283;28;19924;-69
2022/09/12 10:41:18;;;;;;;;;;;22.00;99.90;;;;;;5052793;28;19920;-69
2022/09/12 10:43:44;;;;;;;;;;;22.10;99.90;;;;;;5035444;28;19952;-69
2022/09/12 10:46:16;;;;;;;;;;;22.20;99.90;;;;;;5049534;28;19997;-69
2022/09/12 10:48:42;;;;;;;;;;;22.20;99.90;;;;;;5052387;28;19920;-69
2022/09/12 10:51:25;;;;;;;;;;;22.20;99.90;;;;;;5053616;28;19931;-69
2022/09/12 10:53:52;;;;;;;;;;;22.30;99.90;;;;;;5052064;28;19924;-70
2022/09/12 10:56:20;;;;;;;;;;;22.40;99.90;;;;;;5056912;28;19927;-69
2022/09/12 10:58:54;;;;;;;;;;;22.40;99.90;;;;;;5060375;28;19932;-69
2022/09/12 11:01:23;;;;;;;;;;;22.40;99.90;;;;;;5045524;28;20381;-69
2022/09/12 11:04:06;;;;;;;;;;;22.50;99.90;;;;;;5050858;28;19928;-69
2022/09/12 11:06:38;;;;;;;;;;;22.50;99.90;;;;;;5045561;28;19920;-69
2022/09/12 11:09:08;;;;;;;;;;;22.60;99.90;;;;;;5053930;28;19928;-69
2022/09/12 11:11:37;;;;;;;;;;;22.70;99.90;;;;;;5048346;28;19921;-69
2022/09/12 11:14:05;;;;;;;;;;;22.80;99.90;;;;;;5054553;28;19921;-68
2022/09/12 11:16:48;;;;;;;;;;;22.80;97.90;;;;;;5069780;28;19965;-68
2022/09/12 11:19:16;;;;;;;;;;;22.80;98.40;;;;;;5054402;28;19974;-68
2022/09/12 11:22:00;;;;;;;;;;;22.80;99.20;;;;;;5052104;28;19966;-68
2022/09/12 11:24:45;;;;;;;;;;;22.90;99.90;;;;;;5072525;28;19974;-68
2022/09/12 11:27:19;;;;;;;;;;;22.90;98.60;;;;;;5051379;28;19920;-68
2022/09/12 11:30:00;;;;;;;;;;;23.00;98.50;;;;;;5049214;28;19925;-68
2022/09/12 11:32:35;;;;;;;;;;;23.00;98.00;;;;;;5047129;28;19947;-68
2022/09/12 11:35:17;;;;;;;;;;;23.00;98.60;;;;;;5051819;28;20004;-68
2022/09/12 11:38:02;;;;;;;;;;;23.00;97.50;;;;;;5060640;28;19928;-68
2022/09/12 11:40:30;;;;;;;;;;;23.00;97.30;;;;;;5050106;28;20041;-68
2022/09/12 11:43:00;;;;;;;;;;;23.20;96.70;;;;;;5048495;28;19925;-68
2022/09/12 11:45:28;;;;;;;;;;;23.00;97.50;;;;;;5058228;28;20018;-68
2022/09/12 11:47:58;;;;;;;;;;;23.20;97.00;;;;;;5064850;28;19942;-68
2022/09/12 11:50:27;;;;;;;;;;;23.20;96.60;;;;;;5070318;28;20015;-68
2022/09/12 11:52:56;;;;;;;;;;;23.20;97.20;;;;;;5036599;28;19920;-68
2022/09/12 11:55:24;;;;;;;;;;;23.30;97.20;;;;;;5050756;28;19928;-68
2022/09/12 11:57:53;;;;;;;;;;;23.40;98.20;;;;;;5045440;28;19925;-68
2022/09/12 12:00:19;;;;;;;;;;;23.30;96.40;;;;;;5065823;28;19925;-69
2022/09/12 12:03:04;;;;;;;;;;;23.40;98.10;;;;;;5044073;28;19935;-69
2022/09/12 12:05:38;;;;;;;;;;;23.40;97.50;;;;;;5048550;28;19924;-69
2022/09/12 12:08:05;;;;;;;;;;;23.50;97.90;;;;;;5048016;28;20015;-69
2022/09/12 12:10:33;;;;;;;;;;;23.50;97.10;;;;;;5047063;28;20690;-68
2022/09/12 12:13:01;;;;;;;;;;;23.40;97.00;;;;;;5054541;28;19927;-68
2022/09/12 12:15:27;;;;;;;;;;;23.40;97.20;;;;;;5050435;28;19939;-68
2022/09/12 12:18:07;;;;;;;;;;;23.40;96.90;;;;;;5064407;28;19924;-68
2022/09/12 12:20:32;;;;;;;;;;;23.50;97.90;;;;;;5069492;28;19947;-69
2022/09/12 12:22:58;;;;;;;;;;;23.60;97.60;;;;;;5048816;28;20437;-69
2022/09/12 12:25:35;;;;;;;;;;;23.80;97.10;;;;;;5053484;28;19947;-69
2022/09/12 12:28:01;;;;;;;;;;;24.00;96.70;;;;;;5071199;28;20434;-69
2022/09/12 12:30:29;;;;;;;;;;;24.00;96.20;;;;;;5053330;28;19960;-69
2022/09/12 12:32:58;;;;;;;;;;;24.10;95.70;;;;;;5071094;28;19925;-69
2022/09/12 12:35:40;;;;;;;;;;;24.10;95.50;;;;;;5048191;28;19924;-69
2022/09/12 12:38:32;;;;;;;;;;;24.10;95.60;;;;;;5053144;28;19974;-69
2022/09/12 12:41:16;;;;;;;;;;;24.10;95.00;;;;;;5052306;28;19920;-69
2022/09/12 12:43:42;;;;;;;;;;;24.10;95.20;;;;;;5053371;28;20034;-69
2022/09/12 12:46:09;;;;;;;;;;;24.20;94.40;;;;;;5053618;28;19992;-69
2022/09/12 12:48:44;;;;;;;;;;;24.30;94.40;;;;;;5051478;28;20418;-69
2022/09/12 12:51:23;;;;;;;;;;;24.40;95.10;;;;;;5053617;28;19921;-69
2022/09/12 12:53:50;;;;;;;;;;;24.50;94.30;;;;;;5051457;28;19920;-69
2022/09/12 12:56:37;;;;;;;;;;;24.50;94.80;;;;;;5071683;28;19931;-69
2022/09/12 12:59:15;;;;;;;;;;;24.50;94.90;;;;;;5049761;28;19924;-69
2022/09/12 13:02:00;;;;;;;;;;;24.40;93.40;;;;;;5053461;28;19994;-69
2022/09/12 13:04:27;;;;;;;;;;;24.50;93.10;;;;;;5050193;28;20542;-69
2022/09/12 13:07:01;;;;;;;;;;;24.50;93.70;;;;;;5071352;28;19921;-69
2022/09/12 13:09:38;;;;;;;;;;;24.50;93.80;;;;;;5049851;28;19925;-69
2022/09/12 13:12:06;;;;;;;;;;;24.30;92.60;;;;;;5033626;28;19921;-69
2022/09/12 13:14:41;;;;;;;;;;;24.30;93.50;;;;;;5051329;28;19920;-69
2022/09/12 13:17:13;;;;;;;;;;;24.40;92.80;;;;;;5049956;28;20058;-69
2022/09/12 13:19:39;;;;;;;;;;;24.40;93.50;;;;;;5043634;28;19924;-69
2022/09/12 13:22:06;;;;;;;;;;;24.40;93.40;;;;;;5029866;28;20012;-69
2022/09/12 13:24:32;;;;;;;;;;;24.40;93.30;;;;;;5029906;28;19932;-69
2022/09/12 13:26:58;;;;;;;;;;;24.50;93.40;;;;;;5031536;28;20621;-69
2022/09/12 13:29:24;;;;;;;;;;;24.60;92.90;;;;;;5051253;28;19925;-69
2022/09/12 13:31:52;;;;;;;;;;;24.60;92.90;;;;;;5049769;28;19960;-69
2022/09/12 13:34:21;;;;;;;;;;;24.60;93.30;;;;;;5046728;28;20374;-69
2022/09/12 13:36:55;;;;;;;;;;;24.60;93.30;;;;;;5029974;28;19921;-69
2022/09/12 13:39:28;;;;;;;;;;;24.60;93.50;;;;;;5029886;28;19927;-67
2022/09/12 13:42:23;;;;;;;;;;;24.60;92.90;;;;;;5033544;28;19928;-67
2022/09/12 13:44:49;;;;;;;;;;;24.60;92.50;;;;;;5032323;28;20007;-67
2022/09/12 13:47:17;;;;;;;;;;;24.70;92.90;;;;;;5053248;28;19921;-67
2022/09/12 13:49:44;;;;;;;;;;;24.70;93.40;;;;;;5051187;28;19921;-67
2022/09/12 13:52:15;;;;;;;;;;;24.70;93.30;;;;;;5036575;28;19924;-67
2022/09/12 13:54:43;;;;;;;;;;;24.70;93.20;;;;;;5053088;28;20020;-67
2022/09/12 13:57:25;;;;;;;;;;;24.80;92.30;;;;;;5054519;28;19931;-67
2022/09/12 13:59:53;;;;;;;;;;;24.80;91.90;;;;;;5036698;28;19921;-67
2022/09/12 14:02:20;;;;;;;;;;;24.80;91.50;;;;;;5052770;28;20023;-67
2022/09/12 14:07:31;;;;;;;;;;;24.80;91.70;;;;;;5043997;28;19921;-66
2022/09/12 14:09:57;;;;;;;;;;;24.70;92.10;;;;;;5049472;28;20347;-66
2022/09/12 14:12:39;;;;;;;;;;;24.70;91.70;;;;;;5043035;28;20008;-66
2022/09/12 14:15:13;;;;;;;;;;;24.60;91.20;;;;;;5051895;28;19967;-66
2022/09/12 14:17:39;;;;;;;;;;;24.50;92.10;;;;;;5052498;28;19924;-66
2022/09/12 14:20:07;;;;;;;;;;;24.50;92.00;;;;;;5052106;28;19974;-66
2022/09/12 14:22:34;;;;;;;;;;;24.50;92.10;;;;;;5052554;28;19931;-66
2022/09/12 14:25:00;;;;;;;;;;;24.50;91.90;;;;;;5049534;28;20023;-66
2022/09/12 14:27:29;;;;;;;;;;;24.50;91.60;;;;;;5051394;28;19928;-66
2022/09/12 14:30:02;;;;;;;;;;;24.50;91.90;;;;;;5025423;28;20010;-66